sensor_id;sensor_type;location;lat;lon;timestamp;P1;durP1;ratioP1;P2;durP2;ratioP2
6394;SDS011;3230;42.588;23.358;2023-02-12T00:01:21;20.42;;;8.95;;
6394;SDS011;3230;42.588;23.358;2023-02-12T00:03:47;23.50;;;8.40;;
6394;SDS011;3230;42.588;23.358;2023-02-12T00:06:13;19.03;;;8.73;;
6394;SDS011;3230;42.588;23.358;2023-02-12T00:08:39;16.37;;;6.37;;
6394;SDS011;3230;42.588;23.358;2023-02-12T00:11:11;13.53;;;6.07;;
6394;SDS011;3230;42.588;23.358;2023-02-12T00:13:41;15.38;;;7.05;;
6394;SDS011;3230;42.588;23.358;2023-02-12T00:16:09;20.42;;;9.63;;
6394;SDS011;3230;42.588;23.358;2023-02-12T00:18:36;32.75;;;12.52;;
6394;SDS011;3230;42.588;23.358;2023-02-12T00:21:01;15.00;;;6.27;;
6394;SDS011;3230;42.588;23.358;2023-02-12T00:23:27;12.67;;;4.90;;
6394;SDS011;3230;42.588;23.358;2023-02-12T00:25:53;61.10;;;19.57;;
6394;SDS011;3230;42.588;23.358;2023-02-12T00:28:18;48.30;;;19.77;;
6394;SDS011;3230;42.588;23.358;2023-02-12T00:30:43;87.30;;;25.07;;
6394;SDS011;3230;42.588;23.358;2023-02-12T00:33:09;25.23;;;9.97;;
6394;SDS011;3230;42.588;23.358;2023-02-12T00:35:34;13.13;;;6.23;;
6394;SDS011;3230;42.588;23.358;2023-02-12T00:38:00;27.30;;;11.10;;
6394;SDS011;3230;42.588;23.358;2023-02-12T00:40:25;29.90;;;11.77;;
6394;SDS011;3230;42.588;23.358;2023-02-12T00:42:51;16.20;;;6.30;;
6394;SDS011;3230;42.588;23.358;2023-02-12T00:45:16;12.03;;;5.40;;
6394;SDS011;3230;42.588;23.358;2023-02-12T00:47:42;17.97;;;7.50;;
6394;SDS011;3230;42.588;23.358;2023-02-12T00:50:07;11.00;;;5.50;;
6394;SDS011;3230;42.588;23.358;2023-02-12T00:52:33;20.03;;;5.57;;
6394;SDS011;3230;42.588;23.358;2023-02-12T00:54:58;5.83;;;3.77;;
6394;SDS011;3230;42.588;23.358;2023-02-12T00:57:23;5.30;;;2.83;;
6394;SDS011;3230;42.588;23.358;2023-02-12T00:59:49;10.57;;;4.37;;
6394;SDS011;3230;42.588;23.358;2023-02-12T01:02:14;9.27;;;4.77;;
6394;SDS011;3230;42.588;23.358;2023-02-12T01:04:40;18.60;;;7.70;;
6394;SDS011;3230;42.588;23.358;2023-02-12T01:07:05;15.40;;;5.40;;
6394;SDS011;3230;42.588;23.358;2023-02-12T01:09:31;8.43;;;4.23;;
6394;SDS011;3230;42.588;23.358;2023-02-12T01:11:56;5.33;;;2.90;;
6394;SDS011;3230;42.588;23.358;2023-02-12T01:14:22;9.87;;;4.37;;
6394;SDS011;3230;42.588;23.358;2023-02-12T01:16:47;13.97;;;5.90;;
6394;SDS011;3230;42.588;23.358;2023-02-12T01:19:12;11.70;;;5.67;;
6394;SDS011;3230;42.588;23.358;2023-02-12T01:21:38;6.33;;;4.10;;
6394;SDS011;3230;42.588;23.358;2023-02-12T01:24:03;4.20;;;2.60;;
6394;SDS011;3230;42.588;23.358;2023-02-12T01:26:29;4.20;;;2.63;;
6394;SDS011;3230;42.588;23.358;2023-02-12T01:28:56;5.80;;;2.30;;
6394;SDS011;3230;42.588;23.358;2023-02-12T01:31:24;4.00;;;2.20;;
6394;SDS011;3230;42.588;23.358;2023-02-12T01:33:52;5.25;;;3.05;;
6394;SDS011;3230;42.588;23.358;2023-02-12T01:36:19;7.45;;;3.50;;
6394;SDS011;3230;42.588;23.358;2023-02-12T01:38:45;9.20;;;4.40;;
6394;SDS011;3230;42.588;23.358;2023-02-12T01:41:13;9.00;;;3.80;;
6394;SDS011;3230;42.588;23.358;2023-02-12T01:43:40;4.40;;;2.70;;
6394;SDS011;3230;42.588;23.358;2023-02-12T01:46:07;4.97;;;2.40;;
6394;SDS011;3230;42.588;23.358;2023-02-12T01:48:45;2.45;;;2.05;;
6394;SDS011;3230;42.588;23.358;2023-02-12T01:51:13;4.75;;;2.67;;
6394;SDS011;3230;42.588;23.358;2023-02-12T01:53:46;7.50;;;3.45;;
6394;SDS011;3230;42.588;23.358;2023-02-12T01:56:15;10.25;;;3.97;;
6394;SDS011;3230;42.588;23.358;2023-02-12T01:58:42;7.75;;;4.57;;
6394;SDS011;3230;42.588;23.358;2023-02-12T02:01:11;13.10;;;4.93;;
6394;SDS011;3230;42.588;23.358;2023-02-12T02:03:42;20.65;;;6.85;;
6394;SDS011;3230;42.588;23.358;2023-02-12T02:06:13;21.38;;;7.35;;
6394;SDS011;3230;42.588;23.358;2023-02-12T02:08:41;14.18;;;6.55;;
6394;SDS011;3230;42.588;23.358;2023-02-12T02:11:07;8.63;;;3.77;;
6394;SDS011;3230;42.588;23.358;2023-02-12T02:13:51;5.25;;;2.70;;
6394;SDS011;3230;42.588;23.358;2023-02-12T02:16:35;6.72;;;3.13;;
6394;SDS011;3230;42.588;23.358;2023-02-12T02:19:15;5.22;;;3.00;;
6394;SDS011;3230;42.588;23.358;2023-02-12T02:27:17;15.82;;;5.07;;
6394;SDS011;3230;42.588;23.358;2023-02-12T02:32:26;9.80;;;4.75;;
6394;SDS011;3230;42.588;23.358;2023-02-12T02:37:36;4.10;;;2.50;;
6394;SDS011;3230;42.588;23.358;2023-02-12T02:40:15;2.67;;;2.00;;
6394;SDS011;3230;42.588;23.358;2023-02-12T02:45:24;4.63;;;2.47;;
6394;SDS011;3230;42.588;23.358;2023-02-12T02:47:59;2.33;;;2.00;;
6394;SDS011;3230;42.588;23.358;2023-02-12T02:50:47;2.45;;;2.25;;
6394;SDS011;3230;42.588;23.358;2023-02-12T02:53:19;6.18;;;2.80;;
6394;SDS011;3230;42.588;23.358;2023-02-12T02:55:51;4.70;;;2.33;;
6394;SDS011;3230;42.588;23.358;2023-02-12T02:58:23;3.83;;;2.58;;
6394;SDS011;3230;42.588;23.358;2023-02-12T03:05:47;22.03;;;9.27;;
6394;SDS011;3230;42.588;23.358;2023-02-12T03:08:19;4.95;;;3.47;;
6394;SDS011;3230;42.588;23.358;2023-02-12T03:10:51;4.72;;;3.13;;
6394;SDS011;3230;42.588;23.358;2023-02-12T03:13:41;3.67;;;2.42;;
6394;SDS011;3230;42.588;23.358;2023-02-12T03:16:17;5.47;;;3.05;;
6394;SDS011;3230;42.588;23.358;2023-02-12T03:18:53;4.90;;;2.35;;
6394;SDS011;3230;42.588;23.358;2023-02-12T03:21:32;7.53;;;3.20;;
6394;SDS011;3230;42.588;23.358;2023-02-12T03:26:47;6.10;;;3.40;;
6394;SDS011;3230;42.588;23.358;2023-02-12T03:29:16;6.82;;;2.80;;
6394;SDS011;3230;42.588;23.358;2023-02-12T03:36:55;6.70;;;3.60;;
6394;SDS011;3230;42.588;23.358;2023-02-12T03:47:16;5.28;;;3.05;;
6394;SDS011;3230;42.588;23.358;2023-02-12T03:52:43;9.00;;;3.22;;
6394;SDS011;3230;42.588;23.358;2023-02-12T03:55:10;6.32;;;3.22;;
6394;SDS011;3230;42.588;23.358;2023-02-12T03:57:38;7.20;;;3.38;;
6394;SDS011;3230;42.588;23.358;2023-02-12T04:00:11;3.00;;;2.17;;
6394;SDS011;3230;42.588;23.358;2023-02-12T04:02:42;6.65;;;3.13;;
6394;SDS011;3230;42.588;23.358;2023-02-12T04:05:15;5.30;;;2.45;;
6394;SDS011;3230;42.588;23.358;2023-02-12T04:07:44;8.80;;;3.55;;
6394;SDS011;3230;42.588;23.358;2023-02-12T04:10:10;3.97;;;2.90;;
6394;SDS011;3230;42.588;23.358;2023-02-12T04:12:40;9.13;;;5.03;;
6394;SDS011;3230;42.588;23.358;2023-02-12T04:20:48;4.30;;;3.20;;
6394;SDS011;3230;42.588;23.358;2023-02-12T04:26:18;6.10;;;3.35;;
6394;SDS011;3230;42.588;23.358;2023-02-12T04:31:24;4.53;;;2.63;;
6394;SDS011;3230;42.588;23.358;2023-02-12T04:34:00;6.38;;;3.60;;
6394;SDS011;3230;42.588;23.358;2023-02-12T04:36:31;6.30;;;3.17;;
6394;SDS011;3230;42.588;23.358;2023-02-12T04:39:02;6.03;;;3.50;;
6394;SDS011;3230;42.588;23.358;2023-02-12T04:41:35;10.50;;;5.20;;
6394;SDS011;3230;42.588;23.358;2023-02-12T04:44:24;5.70;;;3.88;;
6394;SDS011;3230;42.588;23.358;2023-02-12T04:46:49;17.73;;;4.22;;
6394;SDS011;3230;42.588;23.358;2023-02-12T04:49:16;8.07;;;4.35;;
6394;SDS011;3230;42.588;23.358;2023-02-12T04:51:43;7.55;;;4.63;;
6394;SDS011;3230;42.588;23.358;2023-02-12T04:54:10;8.15;;;4.10;;
6394;SDS011;3230;42.588;23.358;2023-02-12T04:56:36;8.40;;;4.45;;
6394;SDS011;3230;42.588;23.358;2023-02-12T04:59:02;5.80;;;3.10;;
6394;SDS011;3230;42.588;23.358;2023-02-12T05:01:28;8.82;;;4.78;;
6394;SDS011;3230;42.588;23.358;2023-02-12T05:03:53;4.90;;;2.47;;
6394;SDS011;3230;42.588;23.358;2023-02-12T05:06:19;5.40;;;2.60;;
6394;SDS011;3230;42.588;23.358;2023-02-12T05:08:44;7.07;;;3.90;;
6394;SDS011;3230;42.588;23.358;2023-02-12T05:11:10;7.43;;;4.37;;
6394;SDS011;3230;42.588;23.358;2023-02-12T05:13:36;7.17;;;3.73;;
6394;SDS011;3230;42.588;23.358;2023-02-12T05:16:05;8.02;;;3.78;;
6394;SDS011;3230;42.588;23.358;2023-02-12T05:18:32;5.88;;;2.80;;
6394;SDS011;3230;42.588;23.358;2023-02-12T05:20:59;9.00;;;4.00;;
6394;SDS011;3230;42.588;23.358;2023-02-12T05:23:28;7.65;;;3.88;;
6394;SDS011;3230;42.588;23.358;2023-02-12T05:25:57;7.15;;;3.88;;
6394;SDS011;3230;42.588;23.358;2023-02-12T05:28:24;6.05;;;4.18;;
6394;SDS011;3230;42.588;23.358;2023-02-12T05:30:50;7.47;;;3.83;;
6394;SDS011;3230;42.588;23.358;2023-02-12T05:33:15;7.40;;;4.00;;
6394;SDS011;3230;42.588;23.358;2023-02-12T05:35:41;9.23;;;3.90;;
6394;SDS011;3230;42.588;23.358;2023-02-12T05:38:06;3.10;;;2.23;;
6394;SDS011;3230;42.588;23.358;2023-02-12T05:40:32;7.53;;;4.23;;
6394;SDS011;3230;42.588;23.358;2023-02-12T05:42:58;7.38;;;3.80;;
6394;SDS011;3230;42.588;23.358;2023-02-12T05:45:23;6.40;;;3.37;;
6394;SDS011;3230;42.588;23.358;2023-02-12T05:47:52;6.68;;;3.58;;
6394;SDS011;3230;42.588;23.358;2023-02-12T05:50:18;3.15;;;2.00;;
6394;SDS011;3230;42.588;23.358;2023-02-12T05:52:46;6.75;;;3.88;;
6394;SDS011;3230;42.588;23.358;2023-02-12T05:55:12;8.60;;;3.90;;
6394;SDS011;3230;42.588;23.358;2023-02-12T05:57:37;4.37;;;2.93;;
6394;SDS011;3230;42.588;23.358;2023-02-12T06:00:09;4.60;;;2.60;;
6394;SDS011;3230;42.588;23.358;2023-02-12T06:02:35;4.57;;;2.58;;
6394;SDS011;3230;42.588;23.358;2023-02-12T06:05:00;3.90;;;2.50;;
6394;SDS011;3230;42.588;23.358;2023-02-12T06:07:26;3.03;;;2.40;;
6394;SDS011;3230;42.588;23.358;2023-02-12T06:09:52;3.08;;;2.00;;
6394;SDS011;3230;42.588;23.358;2023-02-12T06:12:19;16.60;;;6.57;;
6394;SDS011;3230;42.588;23.358;2023-02-12T06:14:44;11.23;;;5.90;;
6394;SDS011;3230;42.588;23.358;2023-02-12T06:17:10;48.93;;;20.80;;
6394;SDS011;3230;42.588;23.358;2023-02-12T06:19:35;28.17;;;14.33;;
6394;SDS011;3230;42.588;23.358;2023-02-12T06:22:01;10.40;;;5.07;;
6394;SDS011;3230;42.588;23.358;2023-02-12T06:24:26;9.17;;;5.10;;
6394;SDS011;3230;42.588;23.358;2023-02-12T06:26:52;31.97;;;15.70;;
6394;SDS011;3230;42.588;23.358;2023-02-12T06:29:17;17.50;;;10.27;;
6394;SDS011;3230;42.588;23.358;2023-02-12T06:31:44;12.68;;;7.18;;
6394;SDS011;3230;42.588;23.358;2023-02-12T06:34:10;8.70;;;4.20;;
6394;SDS011;3230;42.588;23.358;2023-02-12T06:36:37;9.10;;;5.55;;
6394;SDS011;3230;42.588;23.358;2023-02-12T06:39:04;10.32;;;6.55;;
6394;SDS011;3230;42.588;23.358;2023-02-12T06:41:30;24.60;;;9.13;;
6394;SDS011;3230;42.588;23.358;2023-02-12T06:43:55;12.07;;;5.30;;
6394;SDS011;3230;42.588;23.358;2023-02-12T06:46:21;14.17;;;6.47;;
6394;SDS011;3230;42.588;23.358;2023-02-12T06:48:47;16.70;;;8.73;;
6394;SDS011;3230;42.588;23.358;2023-02-12T06:51:14;15.10;;;6.30;;
6394;SDS011;3230;42.588;23.358;2023-02-12T06:53:42;9.70;;;4.90;;
6394;SDS011;3230;42.588;23.358;2023-02-12T06:56:09;14.68;;;6.35;;
6394;SDS011;3230;42.588;23.358;2023-02-12T06:58:37;12.05;;;6.18;;
6394;SDS011;3230;42.588;23.358;2023-02-12T07:01:08;8.05;;;4.50;;
6394;SDS011;3230;42.588;23.358;2023-02-12T07:03:37;11.02;;;5.22;;
6394;SDS011;3230;42.588;23.358;2023-02-12T07:06:06;12.50;;;5.60;;
6394;SDS011;3230;42.588;23.358;2023-02-12T07:08:31;4.53;;;2.77;;
6394;SDS011;3230;42.588;23.358;2023-02-12T07:10:56;8.30;;;3.37;;
6394;SDS011;3230;42.588;23.358;2023-02-12T07:13:22;10.50;;;4.93;;
6394;SDS011;3230;42.588;23.358;2023-02-12T07:15:47;9.23;;;5.30;;
6394;SDS011;3230;42.588;23.358;2023-02-12T07:18:13;10.30;;;5.70;;
6394;SDS011;3230;42.588;23.358;2023-02-12T07:20:38;10.30;;;5.83;;
6394;SDS011;3230;42.588;23.358;2023-02-12T07:23:04;12.50;;;5.93;;
6394;SDS011;3230;42.588;23.358;2023-02-12T07:25:29;11.00;;;6.07;;
6394;SDS011;3230;42.588;23.358;2023-02-12T07:27:54;10.47;;;5.83;;
6394;SDS011;3230;42.588;23.358;2023-02-12T07:30:20;10.50;;;5.30;;
6394;SDS011;3230;42.588;23.358;2023-02-12T07:32:45;9.30;;;5.10;;
6394;SDS011;3230;42.588;23.358;2023-02-12T07:35:10;11.90;;;5.90;;
6394;SDS011;3230;42.588;23.358;2023-02-12T07:37:36;16.20;;;7.43;;
6394;SDS011;3230;42.588;23.358;2023-02-12T07:40:01;9.00;;;5.27;;
6394;SDS011;3230;42.588;23.358;2023-02-12T07:42:27;11.93;;;5.43;;
6394;SDS011;3230;42.588;23.358;2023-02-12T07:44:54;17.58;;;8.95;;
6394;SDS011;3230;42.588;23.358;2023-02-12T07:47:19;13.97;;;6.37;;
6394;SDS011;3230;42.588;23.358;2023-02-12T07:49:45;12.90;;;6.37;;
6394;SDS011;3230;42.588;23.358;2023-02-12T07:52:10;14.40;;;6.60;;
6394;SDS011;3230;42.588;23.358;2023-02-12T07:54:36;17.07;;;7.70;;
6394;SDS011;3230;42.588;23.358;2023-02-12T07:57:01;19.27;;;9.37;;
6394;SDS011;3230;42.588;23.358;2023-02-12T07:59:27;9.70;;;5.60;;
6394;SDS011;3230;42.588;23.358;2023-02-12T08:01:52;5.87;;;3.30;;
6394;SDS011;3230;42.588;23.358;2023-02-12T08:04:19;12.43;;;6.20;;
6394;SDS011;3230;42.588;23.358;2023-02-12T08:06:48;12.85;;;6.72;;
6394;SDS011;3230;42.588;23.358;2023-02-12T08:09:19;14.20;;;7.50;;
6394;SDS011;3230;42.588;23.358;2023-02-12T08:11:46;12.27;;;6.45;;
6394;SDS011;3230;42.588;23.358;2023-02-12T08:14:13;11.17;;;6.80;;
6394;SDS011;3230;42.588;23.358;2023-02-12T08:16:40;16.05;;;7.28;;
6394;SDS011;3230;42.588;23.358;2023-02-12T08:19:07;14.10;;;7.30;;
6394;SDS011;3230;42.588;23.358;2023-02-12T08:21:33;13.10;;;6.80;;
6394;SDS011;3230;42.588;23.358;2023-02-12T08:23:59;14.87;;;8.20;;
6394;SDS011;3230;42.588;23.358;2023-02-12T08:28:59;17.50;;;7.88;;
6394;SDS011;3230;42.588;23.358;2023-02-12T08:31:27;13.68;;;8.00;;
6394;SDS011;3230;42.588;23.358;2023-02-12T08:33:54;13.02;;;7.35;;
6394;SDS011;3230;42.588;23.358;2023-02-12T08:36:24;19.30;;;6.80;;
6394;SDS011;3230;42.588;23.358;2023-02-12T08:38:58;16.25;;;7.43;;
6394;SDS011;3230;42.588;23.358;2023-02-12T08:41:24;18.50;;;8.68;;
6394;SDS011;3230;42.588;23.358;2023-02-12T08:43:59;16.00;;;8.80;;
6394;SDS011;3230;42.588;23.358;2023-02-12T08:46:27;21.20;;;10.48;;
6394;SDS011;3230;42.588;23.358;2023-02-12T08:48:55;16.80;;;9.70;;
6394;SDS011;3230;42.588;23.358;2023-02-12T08:51:23;16.42;;;9.00;;
6394;SDS011;3230;42.588;23.358;2023-02-12T08:53:55;14.27;;;7.35;;
6394;SDS011;3230;42.588;23.358;2023-02-12T08:56:22;16.35;;;8.32;;
6394;SDS011;3230;42.588;23.358;2023-02-12T08:58:48;11.50;;;6.03;;
6394;SDS011;3230;42.588;23.358;2023-02-12T09:01:24;11.90;;;6.77;;
6394;SDS011;3230;42.588;23.358;2023-02-12T09:03:52;15.18;;;8.70;;
6394;SDS011;3230;42.588;23.358;2023-02-12T09:06:19;20.15;;;8.55;;
6394;SDS011;3230;42.588;23.358;2023-02-12T09:08:45;13.13;;;7.75;;
6394;SDS011;3230;42.588;23.358;2023-02-12T09:11:12;18.07;;;9.33;;
6394;SDS011;3230;42.588;23.358;2023-02-12T09:13:43;13.77;;;5.80;;
6394;SDS011;3230;42.588;23.358;2023-02-12T09:16:10;15.15;;;8.15;;
6394;SDS011;3230;42.588;23.358;2023-02-12T09:18:36;11.13;;;6.30;;
6394;SDS011;3230;42.588;23.358;2023-02-12T09:21:03;12.32;;;6.80;;
6394;SDS011;3230;42.588;23.358;2023-02-12T09:23:36;11.60;;;6.25;;
6394;SDS011;3230;42.588;23.358;2023-02-12T09:26:03;13.27;;;6.80;;
6394;SDS011;3230;42.588;23.358;2023-02-12T09:28:29;14.05;;;7.28;;
6394;SDS011;3230;42.588;23.358;2023-02-12T09:30:55;15.70;;;6.47;;
6394;SDS011;3230;42.588;23.358;2023-02-12T09:33:20;11.97;;;6.43;;
6394;SDS011;3230;42.588;23.358;2023-02-12T09:35:46;14.75;;;7.78;;
6394;SDS011;3230;42.588;23.358;2023-02-12T09:38:12;11.57;;;7.00;;
6394;SDS011;3230;42.588;23.358;2023-02-12T09:43:42;14.07;;;7.75;;
6394;SDS011;3230;42.588;23.358;2023-02-12T09:46:37;11.57;;;6.60;;
6394;SDS011;3230;42.588;23.358;2023-02-12T09:49:10;14.43;;;7.45;;
6394;SDS011;3230;42.588;23.358;2023-02-12T09:51:44;11.40;;;7.30;;
6394;SDS011;3230;42.588;23.358;2023-02-12T09:54:22;18.52;;;9.05;;
6394;SDS011;3230;42.588;23.358;2023-02-12T09:56:51;15.85;;;8.93;;
6394;SDS011;3230;42.588;23.358;2023-02-12T09:59:34;17.73;;;9.90;;
6394;SDS011;3230;42.588;23.358;2023-02-12T10:02:14;19.25;;;9.63;;
6394;SDS011;3230;42.588;23.358;2023-02-12T10:04:44;20.42;;;9.85;;
6394;SDS011;3230;42.588;23.358;2023-02-12T10:26:23;21.15;;;9.82;;
6394;SDS011;3230;42.588;23.358;2023-02-12T10:28:53;22.95;;;11.95;;
6394;SDS011;3230;42.588;23.358;2023-02-12T10:31:29;17.65;;;9.52;;
6394;SDS011;3230;42.588;23.358;2023-02-12T10:33:58;15.65;;;8.90;;
6394;SDS011;3230;42.588;23.358;2023-02-12T10:36:38;17.97;;;10.93;;
6394;SDS011;3230;42.588;23.358;2023-02-12T10:41:42;17.58;;;10.23;;
6394;SDS011;3230;42.588;23.358;2023-02-12T10:44:11;19.70;;;10.48;;
6394;SDS011;3230;42.588;23.358;2023-02-12T10:46:37;19.57;;;10.13;;
6394;SDS011;3230;42.588;23.358;2023-02-12T10:49:02;21.27;;;10.57;;
6394;SDS011;3230;42.588;23.358;2023-02-12T10:57:22;20.58;;;10.73;;
6394;SDS011;3230;42.588;23.358;2023-02-12T10:59:51;20.88;;;10.55;;
6394;SDS011;3230;42.588;23.358;2023-02-12T11:02:22;24.08;;;11.25;;
6394;SDS011;3230;42.588;23.358;2023-02-12T11:04:50;19.42;;;10.52;;
6394;SDS011;3230;42.588;23.358;2023-02-12T11:07:18;19.92;;;10.70;;
6394;SDS011;3230;42.588;23.358;2023-02-12T11:09:45;18.40;;;9.52;;
6394;SDS011;3230;42.588;23.358;2023-02-12T11:15:17;20.55;;;10.80;;
6394;SDS011;3230;42.588;23.358;2023-02-12T11:17:41;22.75;;;10.93;;
6394;SDS011;3230;42.588;23.358;2023-02-12T11:23:06;22.63;;;12.10;;
6394;SDS011;3230;42.588;23.358;2023-02-12T11:25:59;19.88;;;11.98;;
6394;SDS011;3230;42.588;23.358;2023-02-12T11:29:08;20.98;;;10.68;;
6394;SDS011;3230;42.588;23.358;2023-02-12T11:32:02;25.23;;;12.30;;
6394;SDS011;3230;42.588;23.358;2023-02-12T11:34:29;23.13;;;12.50;;
6394;SDS011;3230;42.588;23.358;2023-02-12T11:36:55;19.60;;;10.67;;
6394;SDS011;3230;42.588;23.358;2023-02-12T11:39:29;20.80;;;11.00;;
6394;SDS011;3230;42.588;23.358;2023-02-12T11:41:59;18.58;;;9.45;;
6394;SDS011;3230;42.588;23.358;2023-02-12T11:44:37;15.85;;;9.15;;
6394;SDS011;3230;42.588;23.358;2023-02-12T11:47:06;21.00;;;9.70;;
6394;SDS011;3230;42.588;23.358;2023-02-12T11:49:41;16.08;;;9.68;;
6394;SDS011;3230;42.588;23.358;2023-02-12T11:52:28;19.63;;;9.55;;
6394;SDS011;3230;42.588;23.358;2023-02-12T11:55:00;18.35;;;9.35;;
6394;SDS011;3230;42.588;23.358;2023-02-12T11:57:42;11.02;;;6.57;;
6394;SDS011;3230;42.588;23.358;2023-02-12T12:00:28;15.32;;;8.68;;
6394;SDS011;3230;42.588;23.358;2023-02-12T12:05:37;11.48;;;7.40;;
6394;SDS011;3230;42.588;23.358;2023-02-12T12:08:20;13.93;;;7.75;;
6394;SDS011;3230;42.588;23.358;2023-02-12T12:10:56;16.58;;;9.02;;
6394;SDS011;3230;42.588;23.358;2023-02-12T12:13:27;23.33;;;12.20;;
6394;SDS011;3230;42.588;23.358;2023-02-12T12:16:05;22.60;;;11.90;;
6394;SDS011;3230;42.588;23.358;2023-02-12T12:18:56;18.67;;;10.02;;
6394;SDS011;3230;42.588;23.358;2023-02-12T12:27:09;19.45;;;11.38;;
6394;SDS011;3230;42.588;23.358;2023-02-12T12:29:59;19.50;;;11.80;;
6394;SDS011;3230;42.588;23.358;2023-02-12T12:32:30;26.23;;;12.55;;
6394;SDS011;3230;42.588;23.358;2023-02-12T12:35:00;25.70;;;12.32;;
6394;SDS011;3230;42.588;23.358;2023-02-12T12:45:29;23.02;;;11.93;;
6394;SDS011;3230;42.588;23.358;2023-02-12T12:50:45;14.93;;;7.93;;
6394;SDS011;3230;42.588;23.358;2023-02-12T12:53:27;16.80;;;9.95;;
6394;SDS011;3230;42.588;23.358;2023-02-12T12:56:06;19.38;;;10.13;;
6394;SDS011;3230;42.588;23.358;2023-02-12T13:10:46;16.85;;;9.23;;
6394;SDS011;3230;42.588;23.358;2023-02-12T13:13:35;17.40;;;10.02;;
6394;SDS011;3230;42.588;23.358;2023-02-12T13:21:39;22.33;;;10.82;;
6394;SDS011;3230;42.588;23.358;2023-02-12T13:26:48;21.50;;;11.30;;
6394;SDS011;3230;42.588;23.358;2023-02-12T13:29:20;51.92;;;26.65;;
6394;SDS011;3230;42.588;23.358;2023-02-12T13:31:52;30.50;;;15.52;;
6394;SDS011;3230;42.588;23.358;2023-02-12T13:34:21;33.80;;;16.17;;
6394;SDS011;3230;42.588;23.358;2023-02-12T13:36:50;25.52;;;11.85;;
6394;SDS011;3230;42.588;23.358;2023-02-12T13:45:03;8.95;;;5.43;;
6394;SDS011;3230;42.588;23.358;2023-02-12T13:58:51;17.60;;;9.82;;
6394;SDS011;3230;42.588;23.358;2023-02-12T14:04:27;16.50;;;8.65;;
6394;SDS011;3230;42.588;23.358;2023-02-12T14:06:57;15.13;;;8.55;;
6394;SDS011;3230;42.588;23.358;2023-02-12T14:09:28;19.85;;;10.65;;
6394;SDS011;3230;42.588;23.358;2023-02-12T14:15:38;16.83;;;7.32;;
6394;SDS011;3230;42.588;23.358;2023-02-12T14:17:48;16.33;;;9.38;;
6394;SDS011;3230;42.588;23.358;2023-02-12T14:27:55;22.47;;;11.20;;
6394;SDS011;3230;42.588;23.358;2023-02-12T14:37:52;18.20;;;10.98;;
6394;SDS011;3230;42.588;23.358;2023-02-12T14:43:01;15.98;;;8.50;;
6394;SDS011;3230;42.588;23.358;2023-02-12T14:48:02;19.20;;;11.48;;
6394;SDS011;3230;42.588;23.358;2023-02-12T14:50:30;24.08;;;12.88;;
6394;SDS011;3230;42.588;23.358;2023-02-12T14:53:04;32.33;;;16.65;;
6394;SDS011;3230;42.588;23.358;2023-02-12T14:55:40;27.05;;;14.55;;
6394;SDS011;3230;42.588;23.358;2023-02-12T14:58:15;25.55;;;13.38;;
6394;SDS011;3230;42.588;23.358;2023-02-12T15:00:45;21.08;;;10.60;;
6394;SDS011;3230;42.588;23.358;2023-02-12T15:21:58;15.93;;;7.68;;
6394;SDS011;3230;42.588;23.358;2023-02-12T15:24:24;17.70;;;10.50;;
6394;SDS011;3230;42.588;23.358;2023-02-12T15:26:55;20.10;;;11.50;;
6394;SDS011;3230;42.588;23.358;2023-02-12T15:29:27;24.05;;;11.10;;
6394;SDS011;3230;42.588;23.358;2023-02-12T15:32:00;24.08;;;12.52;;
6394;SDS011;3230;42.588;23.358;2023-02-12T15:34:30;25.10;;;12.70;;
6394;SDS011;3230;42.588;23.358;2023-02-12T15:36:58;24.25;;;11.88;;
6394;SDS011;3230;42.588;23.358;2023-02-12T15:39:25;21.38;;;11.50;;
6394;SDS011;3230;42.588;23.358;2023-02-12T15:41:52;24.08;;;11.75;;
6394;SDS011;3230;42.588;23.358;2023-02-12T15:44:22;24.20;;;11.93;;
6394;SDS011;3230;42.588;23.358;2023-02-12T15:46:53;29.17;;;14.80;;
6394;SDS011;3230;42.588;23.358;2023-02-12T15:49:25;27.77;;;13.65;;
6394;SDS011;3230;42.588;23.358;2023-02-12T15:51:52;31.35;;;14.75;;
6394;SDS011;3230;42.588;23.358;2023-02-12T15:54:18;21.10;;;11.57;;
6394;SDS011;3230;42.588;23.358;2023-02-12T15:56:44;21.23;;;12.20;;
6394;SDS011;3230;42.588;23.358;2023-02-12T15:59:16;26.43;;;14.70;;
6394;SDS011;3230;42.588;23.358;2023-02-12T16:01:53;26.27;;;14.23;;
6394;SDS011;3230;42.588;23.358;2023-02-12T16:04:21;22.73;;;13.82;;
6394;SDS011;3230;42.588;23.358;2023-02-12T16:06:48;40.50;;;17.77;;
6394;SDS011;3230;42.588;23.358;2023-02-12T16:09:16;50.40;;;22.52;;
6394;SDS011;3230;42.588;23.358;2023-02-12T16:11:51;48.80;;;22.30;;
6394;SDS011;3230;42.588;23.358;2023-02-12T16:16:47;25.10;;;11.35;;
6394;SDS011;3230;42.588;23.358;2023-02-12T16:21:52;21.77;;;11.65;;
6394;SDS011;3230;42.588;23.358;2023-02-12T16:24:43;17.52;;;10.32;;
6394;SDS011;3230;42.588;23.358;2023-02-12T16:27:20;22.45;;;10.65;;
6394;SDS011;3230;42.588;23.358;2023-02-12T16:29:52;24.88;;;12.02;;
6394;SDS011;3230;42.588;23.358;2023-02-12T16:32:27;26.00;;;11.43;;
6394;SDS011;3230;42.588;23.358;2023-02-12T16:35:05;25.17;;;11.60;;
6394;SDS011;3230;42.588;23.358;2023-02-12T16:47:56;23.65;;;12.10;;
6394;SDS011;3230;42.588;23.358;2023-02-12T16:50:29;27.27;;;13.57;;
6394;SDS011;3230;42.588;23.358;2023-02-12T16:53:00;26.30;;;13.98;;
6394;SDS011;3230;42.588;23.358;2023-02-12T16:55:27;22.38;;;11.55;;
6394;SDS011;3230;42.588;23.358;2023-02-12T16:57:53;21.63;;;10.93;;
6394;SDS011;3230;42.588;23.358;2023-02-12T17:00:18;24.50;;;12.13;;
6394;SDS011;3230;42.588;23.358;2023-02-12T17:02:44;24.85;;;12.93;;
6394;SDS011;3230;42.588;23.358;2023-02-12T17:05:11;21.40;;;11.80;;
6394;SDS011;3230;42.588;23.358;2023-02-12T17:07:41;37.65;;;18.67;;
6394;SDS011;3230;42.588;23.358;2023-02-12T17:10:10;32.50;;;16.55;;
6394;SDS011;3230;42.588;23.358;2023-02-12T17:12:43;29.42;;;15.57;;
6394;SDS011;3230;42.588;23.358;2023-02-12T17:15:57;34.90;;;17.00;;
6394;SDS011;3230;42.588;23.358;2023-02-12T17:18:06;32.33;;;15.70;;
6394;SDS011;3230;42.588;23.358;2023-02-12T17:20:35;29.65;;;15.18;;
6394;SDS011;3230;42.588;23.358;2023-02-12T17:23:01;31.40;;;14.02;;
6394;SDS011;3230;42.588;23.358;2023-02-12T17:25:28;27.05;;;14.55;;
6394;SDS011;3230;42.588;23.358;2023-02-12T17:27:54;26.93;;;13.00;;
6394;SDS011;3230;42.588;23.358;2023-02-12T17:30:20;30.20;;;15.10;;
6394;SDS011;3230;42.588;23.358;2023-02-12T17:32:46;31.20;;;15.60;;
6394;SDS011;3230;42.588;23.358;2023-02-12T17:35:12;37.30;;;19.50;;
6394;SDS011;3230;42.588;23.358;2023-02-12T17:37:37;33.30;;;16.15;;
6394;SDS011;3230;42.588;23.358;2023-02-12T17:40:03;29.40;;;14.73;;
6394;SDS011;3230;42.588;23.358;2023-02-12T17:42:29;24.35;;;12.98;;
6394;SDS011;3230;42.588;23.358;2023-02-12T17:44:54;22.13;;;11.33;;
6394;SDS011;3230;42.588;23.358;2023-02-12T17:47:20;25.57;;;12.33;;
6394;SDS011;3230;42.588;23.358;2023-02-12T17:49:45;46.57;;;20.00;;
6394;SDS011;3230;42.588;23.358;2023-02-12T17:52:10;34.43;;;17.40;;
6394;SDS011;3230;42.588;23.358;2023-02-12T17:54:36;40.17;;;18.23;;
6394;SDS011;3230;42.588;23.358;2023-02-12T17:57:01;55.13;;;22.40;;
6394;SDS011;3230;42.588;23.358;2023-02-12T17:59:27;42.57;;;19.30;;
6394;SDS011;3230;42.588;23.358;2023-02-12T18:01:53;43.67;;;19.60;;
6394;SDS011;3230;42.588;23.358;2023-02-12T18:04:19;46.27;;;19.87;;
6394;SDS011;3230;42.588;23.358;2023-02-12T18:06:44;40.57;;;18.43;;
6394;SDS011;3230;42.588;23.358;2023-02-12T18:09:09;37.83;;;16.17;;
6394;SDS011;3230;42.588;23.358;2023-02-12T18:11:35;22.53;;;12.00;;
6394;SDS011;3230;42.588;23.358;2023-02-12T18:14:03;31.42;;;12.88;;
6394;SDS011;3230;42.588;23.358;2023-02-12T18:16:29;27.60;;;13.30;;
6394;SDS011;3230;42.588;23.358;2023-02-12T18:18:56;32.17;;;14.93;;
6394;SDS011;3230;42.588;23.358;2023-02-12T18:21:23;36.58;;;16.42;;
6394;SDS011;3230;42.588;23.358;2023-02-12T18:23:51;43.47;;;19.00;;
6394;SDS011;3230;42.588;23.358;2023-02-12T18:26:17;37.60;;;17.27;;